sensor_id;sensor_type;location;lat;lon;timestamp;pressure;altitude;pressure_sealevel;temperature;humidity
38033;BME280;23841;48.524;1.342;2023-05-29T00:01:33;99420.84;;;20.20;51.40
38033;BME280;23841;48.524;1.342;2023-05-29T00:04:01;99416.41;;;20.19;51.44
38033;BME280;23841;48.524;1.342;2023-05-29T00:06:26;99412.09;;;20.17;51.27
38033;BME280;23841;48.524;1.342;2023-05-29T00:08:52;99404.00;;;20.17;51.35
38033;BME280;23841;48.524;1.342;2023-05-29T00:11:17;99412.25;;;20.13;51.40
38033;BME280;23841;48.524;1.342;2023-05-29T00:13:43;99416.69;;;20.15;51.22
38033;BME280;23841;48.524;1.342;2023-05-29T00:16:08;99411.47;;;20.11;51.36
38033;BME280;23841;48.524;1.342;2023-05-29T00:18:35;99405.19;;;20.11;51.43
38033;BME280;23841;48.524;1.342;2023-05-29T00:21:00;99405.38;;;20.08;51.64
38033;BME280;23841;48.524;1.342;2023-05-29T00:23:26;99415.31;;;20.07;51.44
38033;BME280;23841;48.524;1.342;2023-05-29T00:25:52;99412.72;;;20.06;51.53
38033;BME280;23841;48.524;1.342;2023-05-29T00:28:19;99410.03;;;20.06;51.38
38033;BME280;23841;48.524;1.342;2023-05-29T00:30:44;99412.00;;;20.02;51.37
38033;BME280;23841;48.524;1.342;2023-05-29T00:33:10;99415.66;;;20.01;51.42
38033;BME280;23841;48.524;1.342;2023-05-29T00:35:36;99415.84;;;19.98;51.49
38033;BME280;23841;48.524;1.342;2023-05-29T00:38:01;99413.06;;;20.00;51.34
38033;BME280;23841;48.524;1.342;2023-05-29T00:40:27;99408.22;;;19.90;51.35
38033;BME280;23841;48.524;1.342;2023-05-29T00:42:52;99407.09;;;19.94;51.22
38033;BME280;23841;48.524;1.342;2023-05-29T00:45:18;99406.22;;;19.94;51.33
38033;BME280;23841;48.524;1.342;2023-05-29T00:47:44;99409.94;;;19.91;51.41
38033;BME280;23841;48.524;1.342;2023-05-29T00:50:11;99411.78;;;19.91;51.53
38033;BME280;23841;48.524;1.342;2023-05-29T00:52:41;99412.72;;;19.90;51.37
38033;BME280;23841;48.524;1.342;2023-05-29T00:55:09;99410.13;;;19.88;51.36
38033;BME280;23841;48.524;1.342;2023-05-29T00:57:35;99414.66;;;19.88;51.27
38033;BME280;23841;48.524;1.342;2023-05-29T01:00:04;99414.84;;;19.85;51.36
38033;BME280;23841;48.524;1.342;2023-05-29T01:02:40;99421.28;;;19.82;51.39
38033;BME280;23841;48.524;1.342;2023-05-29T01:05:09;99414.25;;;19.80;51.42
38033;BME280;23841;48.524;1.342;2023-05-29T01:07:36;99405.13;;;19.82;51.31
38033;BME280;23841;48.524;1.342;2023-05-29T01:10:02;99408.75;;;19.81;51.27
38033;BME280;23841;48.524;1.342;2023-05-29T01:12:45;99406.31;;;19.76;51.43
38033;BME280;23841;48.524;1.342;2023-05-29T01:20:42;99406.47;;;19.73;51.37
38033;BME280;23841;48.524;1.342;2023-05-29T01:28:44;99403.28;;;19.67;51.31
38033;BME280;23841;48.524;1.342;2023-05-29T01:31:13;99415.88;;;19.66;51.23
38033;BME280;23841;48.524;1.342;2023-05-29T01:33:40;99417.00;;;19.62;51.22
38033;BME280;23841;48.524;1.342;2023-05-29T01:36:08;99407.97;;;19.63;51.42
38033;BME280;23841;48.524;1.342;2023-05-29T01:38:34;99408.91;;;19.62;51.40
38033;BME280;23841;48.524;1.342;2023-05-29T01:40:59;99404.66;;;19.58;51.37
38033;BME280;23841;48.524;1.342;2023-05-29T01:43:25;99405.44;;;19.60;51.24
38033;BME280;23841;48.524;1.342;2023-05-29T01:45:52;99404.56;;;19.59;51.10
38033;BME280;23841;48.524;1.342;2023-05-29T01:48:17;99401.09;;;19.57;51.25
38033;BME280;23841;48.524;1.342;2023-05-29T01:50:43;99399.44;;;19.55;50.97
38033;BME280;23841;48.524;1.342;2023-05-29T01:53:09;99405.88;;;19.52;51.06
38033;BME280;23841;48.524;1.342;2023-05-29T01:55:35;99410.41;;;19.52;51.00
38033;BME280;23841;48.524;1.342;2023-05-29T01:58:01;99414.03;;;19.51;51.34
38033;BME280;23841;48.524;1.342;2023-05-29T02:00:27;99415.19;;;19.47;51.14
38033;BME280;23841;48.524;1.342;2023-05-29T02:02:52;99422.31;;;19.48;51.06
38033;BME280;23841;48.524;1.342;2023-05-29T02:05:18;99410.75;;;19.45;51.10
38033;BME280;23841;48.524;1.342;2023-05-29T02:07:43;99410.91;;;19.42;51.00
38033;BME280;23841;48.524;1.342;2023-05-29T02:10:09;99404.75;;;19.40;51.20
38033;BME280;23841;48.524;1.342;2023-05-29T02:12:34;99407.56;;;19.39;51.04
38033;BME280;23841;48.524;1.342;2023-05-29T02:15:00;99403.19;;;19.36;50.98
38033;BME280;23841;48.524;1.342;2023-05-29T02:17:25;99392.59;;;19.33;51.10
38033;BME280;23841;48.524;1.342;2023-05-29T02:19:51;99396.25;;;19.32;51.11
38033;BME280;23841;48.524;1.342;2023-05-29T02:22:17;99400.06;;;19.28;50.88
38033;BME280;23841;48.524;1.342;2023-05-29T02:24:43;99398.13;;;19.30;50.74
38033;BME280;23841;48.524;1.342;2023-05-29T02:27:08;99392.94;;;19.27;50.63
38033;BME280;23841;48.524;1.342;2023-05-29T02:29:34;99401.97;;;19.26;50.64
38033;BME280;23841;48.524;1.342;2023-05-29T02:32:00;99399.53;;;19.21;50.75
38033;BME280;23841;48.524;1.342;2023-05-29T02:34:25;99398.69;;;19.21;50.62
38033;BME280;23841;48.524;1.342;2023-05-29T02:36:51;99397.03;;;19.18;50.71
38033;BME280;23841;48.524;1.342;2023-05-29T02:39:20;99400.94;;;19.13;50.83
38033;BME280;23841;48.524;1.342;2023-05-29T02:41:46;99403.63;;;19.13;50.46
38033;BME280;23841;48.524;1.342;2023-05-29T02:44:11;99390.25;;;19.11;50.73
38033;BME280;23841;48.524;1.342;2023-05-29T02:46:37;99399.34;;;19.08;50.80
38033;BME280;23841;48.524;1.342;2023-05-29T02:49:02;99394.06;;;19.07;50.59
38033;BME280;23841;48.524;1.342;2023-05-29T02:51:28;99395.19;;;19.03;50.63
38033;BME280;23841;48.524;1.342;2023-05-29T02:53:53;99389.09;;;18.99;50.58
38033;BME280;23841;48.524;1.342;2023-05-29T02:56:19;99404.28;;;19.00;50.75
38033;BME280;23841;48.524;1.342;2023-05-29T02:58:49;99401.91;;;18.94;50.66
38033;BME280;23841;48.524;1.342;2023-05-29T03:01:15;99404.69;;;18.92;50.70
38033;BME280;23841;48.524;1.342;2023-05-29T03:03:40;99406.44;;;18.93;50.53
38033;BME280;23841;48.524;1.342;2023-05-29T03:06:06;99409.22;;;18.92;50.57
38033;BME280;23841;48.524;1.342;2023-05-29T03:08:31;99399.63;;;18.86;50.82
38033;BME280;23841;48.524;1.342;2023-05-29T03:10:58;99408.72;;;18.84;50.69
38033;BME280;23841;48.524;1.342;2023-05-29T03:13:24;99401.59;;;18.83;50.73
38033;BME280;23841;48.524;1.342;2023-05-29T03:15:49;99402.59;;;18.82;50.66
38033;BME280;23841;48.524;1.342;2023-05-29T03:18:16;99404.66;;;18.76;50.64
38033;BME280;23841;48.524;1.342;2023-05-29T03:20:41;99407.41;;;18.75;50.63
38033;BME280;23841;48.524;1.342;2023-05-29T03:23:07;99406.53;;;18.74;50.48
38033;BME280;23841;48.524;1.342;2023-05-29T03:25:32;99409.31;;;18.73;50.67
38033;BME280;23841;48.524;1.342;2023-05-29T03:27:57;99411.22;;;18.71;50.36
38033;BME280;23841;48.524;1.342;2023-05-29T03:30:23;99412.34;;;18.67;50.66
38033;BME280;23841;48.524;1.342;2023-05-29T03:32:48;99406.25;;;18.63;50.66
38033;BME280;23841;48.524;1.342;2023-05-29T03:35:13;99414.47;;;18.60;50.42
38033;BME280;23841;48.524;1.342;2023-05-29T03:37:39;99410.94;;;18.59;50.55
38033;BME280;23841;48.524;1.342;2023-05-29T03:40:05;99410.22;;;18.56;50.60
38033;BME280;23841;48.524;1.342;2023-05-29T03:42:30;99413.94;;;18.53;50.62
38033;BME280;23841;48.524;1.342;2023-05-29T03:44:59;99414.97;;;18.51;50.52
38033;BME280;23841;48.524;1.342;2023-05-29T03:47:24;99413.25;;;18.50;50.34
38033;BME280;23841;48.524;1.342;2023-05-29T03:49:50;99425.03;;;18.47;50.50
38033;BME280;23841;48.524;1.342;2023-05-29T03:52:15;99427.88;;;18.44;50.51
38033;BME280;23841;48.524;1.342;2023-05-29T03:54:40;99427.16;;;18.40;50.85
38033;BME280;23841;48.524;1.342;2023-05-29T03:57:06;99426.31;;;18.40;50.55
38033;BME280;23841;48.524;1.342;2023-05-29T03:59:32;99422.88;;;18.36;50.74
38033;BME280;23841;48.524;1.342;2023-05-29T04:01:57;99437.28;;;18.35;50.68
38033;BME280;23841;48.524;1.342;2023-05-29T04:04:23;99433.09;;;18.30;50.81
38033;BME280;23841;48.524;1.342;2023-05-29T04:06:48;99437.59;;;18.29;51.01
38033;BME280;23841;48.524;1.342;2023-05-29T04:09:14;99445.75;;;18.28;50.96
38033;BME280;23841;48.524;1.342;2023-05-29T04:11:39;99437.78;;;18.26;51.03
38033;BME280;23841;48.524;1.342;2023-05-29T04:14:06;99432.41;;;18.26;51.06
38033;BME280;23841;48.524;1.342;2023-05-29T04:16:32;99441.56;;;18.22;50.84
38033;BME280;23841;48.524;1.342;2023-05-29T04:18:57;99438.94;;;18.20;51.34
38033;BME280;23841;48.524;1.342;2023-05-29T04:21:23;99448.81;;;18.20;51.43
38033;BME280;23841;48.524;1.342;2023-05-29T04:23:48;99444.38;;;18.19;51.13
38033;BME280;23841;48.524;1.342;2023-05-29T04:26:13;99444.63;;;18.14;51.29
38033;BME280;23841;48.524;1.342;2023-05-29T04:28:39;99442.75;;;18.16;51.45
38033;BME280;23841;48.524;1.342;2023-05-29T04:31:04;99452.78;;;18.13;51.21
38033;BME280;23841;48.524;1.342;2023-05-29T04:33:31;99463.53;;;18.13;51.31
38033;BME280;23841;48.524;1.342;2023-05-29T04:35:57;99461.94;;;18.08;51.60
38033;BME280;23841;48.524;1.342;2023-05-29T04:38:23;99469.06;;;18.10;51.63
38033;BME280;23841;48.524;1.342;2023-05-29T04:40:52;99469.28;;;18.05;51.54
38033;BME280;23841;48.524;1.342;2023-05-29T04:43:17;99471.97;;;18.05;51.69
38033;BME280;23841;48.524;1.342;2023-05-29T04:45:43;99472.84;;;18.05;51.72
38033;BME280;23841;48.524;1.342;2023-05-29T04:48:08;99475.69;;;18.02;51.42
38033;BME280;23841;48.524;1.342;2023-05-29T04:50:34;99483.75;;;18.02;51.66
38033;BME280;23841;48.524;1.342;2023-05-29T04:53:01;99477.72;;;17.97;51.70
38033;BME280;23841;48.524;1.342;2023-05-29T04:55:27;99482.16;;;17.98;51.60
38033;BME280;23841;48.524;1.342;2023-05-29T04:57:53;99478.75;;;17.95;51.88
38033;BME280;23841;48.524;1.342;2023-05-29T05:00:18;99488.56;;;17.96;51.95
38033;BME280;23841;48.524;1.342;2023-05-29T05:02:44;99493.25;;;17.90;51.96
38033;BME280;23841;48.524;1.342;2023-05-29T05:05:10;99485.19;;;17.90;52.12
38033;BME280;23841;48.524;1.342;2023-05-29T05:07:36;99491.59;;;17.88;52.20
38033;BME280;23841;48.524;1.342;2023-05-29T05:10:05;99496.09;;;17.87;52.24
38033;BME280;23841;48.524;1.342;2023-05-29T05:12:31;99490.81;;;17.86;52.38
38033;BME280;23841;48.524;1.342;2023-05-29T05:14:57;99486.53;;;17.82;52.54
38033;BME280;23841;48.524;1.342;2023-05-29T05:17:22;99493.59;;;17.83;52.59
38033;BME280;23841;48.524;1.342;2023-05-29T05:19:48;99492.84;;;17.81;52.79
38033;BME280;23841;48.524;1.342;2023-05-29T05:22:18;99494.66;;;17.80;52.62
38033;BME280;23841;48.524;1.342;2023-05-29T05:24:45;99496.59;;;17.77;52.65
38033;BME280;23841;48.524;1.342;2023-05-29T05:27:11;99499.44;;;17.73;52.85
38033;BME280;23841;48.524;1.342;2023-05-29T05:29:36;99505.69;;;17.74;53.00
38033;BME280;23841;48.524;1.342;2023-05-29T05:32:02;99503.06;;;17.72;52.90
38033;BME280;23841;48.524;1.342;2023-05-29T05:34:27;99503.06;;;17.72;53.06
38033;BME280;23841;48.524;1.342;2023-05-29T05:36:53;99510.28;;;17.72;53.11
38033;BME280;23841;48.524;1.342;2023-05-29T05:39:18;99505.91;;;17.69;53.25
38033;BME280;23841;48.524;1.342;2023-05-29T05:41:44;99504.16;;;17.68;53.16
38033;BME280;23841;48.524;1.342;2023-05-29T05:44:09;99510.41;;;17.69;53.23
38033;BME280;23841;48.524;1.342;2023-05-29T05:46:35;99511.38;;;17.68;53.42
38033;BME280;23841;48.524;1.342;2023-05-29T05:49:00;99513.31;;;17.64;53.54
38033;BME280;23841;48.524;1.342;2023-05-29T05:51:26;99510.69;;;17.63;53.38
38033;BME280;23841;48.524;1.342;2023-05-29T05:53:52;99512.53;;;17.62;53.75
38033;BME280;23841;48.524;1.342;2023-05-29T05:56:17;99511.72;;;17.60;53.73
38033;BME280;23841;48.524;1.342;2023-05-29T05:58:43;99514.25;;;17.63;53.84
38033;BME280;23841;48.524;1.342;2023-05-29T06:01:08;99521.53;;;17.61;53.88
38033;BME280;23841;48.524;1.342;2023-05-29T06:03:34;99515.34;;;17.59;53.83
38033;BME280;23841;48.524;1.342;2023-05-29T06:06:00;99519.06;;;17.56;53.85
38033;BME280;23841;48.524;1.342;2023-05-29T06:08:26;99522.53;;;17.58;54.20
38033;BME280;23841;48.524;1.342;2023-05-29T06:10:51;99531.53;;;17.57;54.11
38033;BME280;23841;48.524;1.342;2023-05-29T06:13:16;99528.91;;;17.56;54.35
38033;BME280;23841;48.524;1.342;2023-05-29T06:15:43;99533.44;;;17.55;54.22
38033;BME280;23841;48.524;1.342;2023-05-29T06:18:08;99528.91;;;17.56;54.21
38033;BME280;23841;48.524;1.342;2023-05-29T06:20:34;99521.09;;;17.51;54.52
38033;BME280;23841;48.524;1.342;2023-05-29T06:22:59;99529.84;;;17.55;54.50
38033;BME280;23841;48.524;1.342;2023-05-29T06:25:24;99530.81;;;17.54;54.63
38033;BME280;23841;48.524;1.342;2023-05-29T06:28:01;99522.91;;;17.51;54.94
38033;BME280;23841;48.524;1.342;2023-05-29T06:30:27;99532.63;;;17.53;54.76
38033;BME280;23841;48.524;1.342;2023-05-29T06:32:53;99545.19;;;17.53;54.91
38033;BME280;23841;48.524;1.342;2023-05-29T06:35:18;99541.72;;;17.51;55.21
38033;BME280;23841;48.524;1.342;2023-05-29T06:37:45;99540.75;;;17.52;55.18
38033;BME280;23841;48.524;1.342;2023-05-29T06:40:12;99550.69;;;17.50;55.19
38033;BME280;23841;48.524;1.342;2023-05-29T06:42:37;99544.41;;;17.51;55.42
38033;BME280;23841;48.524;1.342;2023-05-29T06:45:03;99550.69;;;17.50;55.69
38033;BME280;23841;48.524;1.342;2023-05-29T06:47:29;99545.34;;;17.50;55.77
38033;BME280;23841;48.524;1.342;2023-05-29T06:49:54;99541.97;;;17.45;55.87
38033;BME280;23841;48.524;1.342;2023-05-29T06:52:19;99548.94;;;17.49;55.91
38033;BME280;23841;48.524;1.342;2023-05-29T06:54:45;99557.94;;;17.48;55.77
38033;BME280;23841;48.524;1.342;2023-05-29T06:57:10;99548.03;;;17.50;56.28
38033;BME280;23841;48.524;1.342;2023-05-29T06:59:36;99555.19;;;17.49;55.79
38033;BME280;23841;48.524;1.342;2023-05-29T07:02:01;99548.16;;;17.47;56.13
38033;BME280;23841;48.524;1.342;2023-05-29T07:04:27;99554.41;;;17.47;56.43
38033;BME280;23841;48.524;1.342;2023-05-29T07:06:52;99558.91;;;17.47;56.47
38033;BME280;23841;48.524;1.342;2023-05-29T07:09:17;99560.63;;;17.48;56.29
38033;BME280;23841;48.524;1.342;2023-05-29T07:11:43;99560.63;;;17.48;56.66
38033;BME280;23841;48.524;1.342;2023-05-29T07:14:08;99564.28;;;17.47;56.86
38033;BME280;23841;48.524;1.342;2023-05-29T07:16:34;99560.84;;;17.43;57.49
38033;BME280;23841;48.524;1.342;2023-05-29T07:18:59;99562.69;;;17.43;57.59
38033;BME280;23841;48.524;1.342;2023-05-29T07:21:25;99562.72;;;17.41;58.01
38033;BME280;23841;48.524;1.342;2023-05-29T07:23:50;99559.09;;;17.42;57.92
38033;BME280;23841;48.524;1.342;2023-05-29T07:26:16;99568.84;;;17.45;58.17
38033;BME280;23841;48.524;1.342;2023-05-29T07:28:41;99567.97;;;17.44;58.15
38033;BME280;23841;48.524;1.342;2023-05-29T07:31:07;99557.34;;;17.41;58.46
38033;BME280;23841;48.524;1.342;2023-05-29T07:33:32;99567.97;;;17.44;58.59
38033;BME280;23841;48.524;1.342;2023-05-29T07:35:57;99564.41;;;17.44;58.62
38033;BME280;23841;48.524;1.342;2023-05-29T07:38:23;99570.59;;;17.46;58.54
38033;BME280;23841;48.524;1.342;2023-05-29T07:40:48;99555.41;;;17.45;57.82
38033;BME280;23841;48.524;1.342;2023-05-29T07:43:13;99558.91;;;17.47;58.13
38033;BME280;23841;48.524;1.342;2023-05-29T07:45:39;99561.59;;;17.47;58.41
38033;BME280;23841;48.524;1.342;2023-05-29T07:48:04;99557.16;;;17.46;58.57
38033;BME280;23841;48.524;1.342;2023-05-29T07:50:30;99558.94;;;17.45;58.86
38033;BME280;23841;48.524;1.342;2023-05-29T07:52:55;99564.31;;;17.45;58.68
38033;BME280;23841;48.524;1.342;2023-05-29T07:55:22;99557.16;;;17.46;58.55
38033;BME280;23841;48.524;1.342;2023-05-29T07:57:47;99561.59;;;17.47;59.33
38033;BME280;23841;48.524;1.342;2023-05-29T08:00:14;99558.09;;;17.45;59.41
38033;BME280;23841;48.524;1.342;2023-05-29T08:02:40;99558.00;;;17.46;59.32
38033;BME280;23841;48.524;1.342;2023-05-29T08:05:05;99557.31;;;17.43;59.16
38033;BME280;23841;48.524;1.342;2023-05-29T08:07:33;99554.63;;;17.43;59.15
38033;BME280;23841;48.524;1.342;2023-05-29T08:09:58;99561.72;;;17.44;59.11
38033;BME280;23841;48.524;1.342;2023-05-29T08:12:24;99564.28;;;17.47;59.08
38033;BME280;23841;48.524;1.342;2023-05-29T08:14:50;99570.59;;;17.46;59.49
38033;BME280;23841;48.524;1.342;2023-05-29T08:17:16;99569.78;;;17.44;59.66
38033;BME280;23841;48.524;1.342;2023-05-29T08:19:41;99572.19;;;17.50;59.57
38033;BME280;23841;48.524;1.342;2023-05-29T08:22:06;99569.56;;;17.48;59.46
38033;BME280;23841;48.524;1.342;2023-05-29T08:24:32;99581.03;;;17.52;59.67
38033;BME280;23841;48.524;1.342;2023-05-29T08:26:57;99560.44;;;17.52;59.71
38033;BME280;23841;48.524;1.342;2023-05-29T08:29:23;99566.66;;;17.53;60.03
38033;BME280;23841;48.524;1.342;2023-05-29T08:31:48;99564.06;;;17.51;59.98
38033;BME280;23841;48.524;1.342;2023-05-29T08:34:14;99553.47;;;17.48;59.82
38033;BME280;23841;48.524;1.342;2023-05-29T08:36:39;99557.75;;;17.52;59.60
38033;BME280;23841;48.524;1.342;2023-05-29T08:39:06;99563.91;;;17.54;59.66
38033;BME280;23841;48.524;1.342;2023-05-29T08:44:07;99565.75;;;17.54;59.61
38033;BME280;23841;48.524;1.342;2023-05-29T08:46:33;99563.03;;;17.54;59.95
38033;BME280;23841;48.524;1.342;2023-05-29T08:49:00;99569.34;;;17.53;59.94
38033;BME280;23841;48.524;1.342;2023-05-29T08:51:31;99570.03;;;17.58;59.59
38033;BME280;23841;48.524;1.342;2023-05-29T08:53:57;99576.09;;;17.62;59.59
38033;BME280;23841;48.524;1.342;2023-05-29T08:56:23;99562.91;;;17.57;60.38
38033;BME280;23841;48.524;1.342;2023-05-29T08:58:48;99571.91;;;17.56;61.02
38033;BME280;23841;48.524;1.342;2023-05-29T09:01:16;99568.41;;;17.54;61.11
38033;BME280;23841;48.524;1.342;2023-05-29T09:03:42;99571.81;;;17.57;60.70
38033;BME280;23841;48.524;1.342;2023-05-29T09:06:07;99569.19;;;17.56;61.39
38033;BME280;23841;48.524;1.342;2023-05-29T09:08:34;99571.91;;;17.56;61.31
38033;BME280;23841;48.524;1.342;2023-05-29T09:10:59;99578.09;;;17.58;61.26
38033;BME280;23841;48.524;1.342;2023-05-29T09:13:25;99581.69;;;17.57;61.25
38033;BME280;23841;48.524;1.342;2023-05-29T09:15:58;99575.31;;;17.60;61.36
38033;BME280;23841;48.524;1.342;2023-05-29T09:18:23;99585.91;;;17.63;61.21
38033;BME280;23841;48.524;1.342;2023-05-29T09:20:49;99581.41;;;17.63;61.06
38033;BME280;23841;48.524;1.342;2023-05-29T09:23:14;99569.81;;;17.63;61.26
38033;BME280;23841;48.524;1.342;2023-05-29T09:25:41;99573.31;;;17.65;61.65
38033;BME280;23841;48.524;1.342;2023-05-29T09:28:10;99576.19;;;17.60;61.74
38033;BME280;23841;48.524;1.342;2023-05-29T09:30:37;99579.47;;;17.67;61.80
38033;BME280;23841;48.524;1.342;2023-05-29T09:33:04;99583.00;;;17.67;61.92
38033;BME280;23841;48.524;1.342;2023-05-29T09:35:37;99590.13;;;17.68;62.04
38033;BME280;23841;48.524;1.342;2023-05-29T09:38:03;99590.94;;;17.70;61.47
38033;BME280;23841;48.524;1.342;2023-05-29T09:40:33;99587.38;;;17.70;60.83
38033;BME280;23841;48.524;1.342;2023-05-29T09:43:08;99598.94;;;17.72;61.35
38033;BME280;23841;48.524;1.342;2023-05-29T09:45:41;99595.28;;;17.73;61.16
38033;BME280;23841;48.524;1.342;2023-05-29T09:48:08;99598.78;;;17.75;61.32
38033;BME280;23841;48.524;1.342;2023-05-29T09:50:37;99603.16;;;17.78;60.88
38033;BME280;23841;48.524;1.342;2023-05-29T09:53:02;99587.81;;;17.80;61.76
38033;BME280;23841;48.524;1.342;2023-05-29T09:55:30;99594.06;;;17.80;60.65
38033;BME280;23841;48.524;1.342;2023-05-29T09:57:57;99588.63;;;17.82;60.95
38033;BME280;23841;48.524;1.342;2023-05-29T10:00:24;99595.69;;;17.84;60.91
38033;BME280;23841;48.524;1.342;2023-05-29T10:02:49;99599.22;;;17.85;61.48
38033;BME280;23841;48.524;1.342;2023-05-29T10:05:15;99590.34;;;17.83;60.86
38033;BME280;23841;48.524;1.342;2023-05-29T10:07:44;99594.63;;;17.87;61.38
38033;BME280;23841;48.524;1.342;2023-05-29T10:10:13;99580.34;;;17.86;60.95
38033;BME280;23841;48.524;1.342;2023-05-29T10:12:47;99581.94;;;17.90;61.23
38033;BME280;23841;48.524;1.342;2023-05-29T10:15:14;99574.81;;;17.89;61.46
38033;BME280;23841;48.524;1.342;2023-05-29T10:17:52;99579.22;;;17.92;61.31
38033;BME280;23841;48.524;1.342;2023-05-29T10:20:20;99573.81;;;17.92;61.72
38033;BME280;23841;48.524;1.342;2023-05-29T10:22:48;99566.59;;;17.94;61.56
38033;BME280;23841;48.524;1.342;2023-05-29T10:25:14;99572.81;;;17.95;62.22
38033;BME280;23841;48.524;1.342;2023-05-29T10:27:42;99574.56;;;17.96;62.01
38033;BME280;23841;48.524;1.342;2023-05-29T10:30:33;99569.91;;;17.99;62.51
38033;BME280;23841;48.524;1.342;2023-05-29T10:33:15;99566.34;;;17.99;62.26
38033;BME280;23841;48.524;1.342;2023-05-29T10:36:14;99556.34;;;18.02;61.81
38033;BME280;23841;48.524;1.342;2023-05-29T10:38:45;99563.34;;;18.05;61.68
38033;BME280;23841;48.524;1.342;2023-05-29T10:41:30;99563.22;;;18.08;62.21
38033;BME280;23841;48.524;1.342;2023-05-29T10:44:00;99558.63;;;18.10;62.53
38033;BME280;23841;48.524;1.342;2023-05-29T10:49:20;99573.44;;;18.19;62.54
38033;BME280;23841;48.524;1.342;2023-05-29T10:51:47;99571.72;;;18.18;62.97
38033;BME280;23841;48.524;1.342;2023-05-29T10:54:13;99570.47;;;18.25;63.06
38033;BME280;23841;48.524;1.342;2023-05-29T10:56:39;99561.59;;;18.23;63.00
38033;BME280;23841;48.524;1.342;2023-05-29T10:59:07;99567.84;;;18.23;63.44
38033;BME280;23841;48.524;1.342;2023-05-29T11:01:34;99558.13;;;18.21;63.18
38033;BME280;23841;48.524;1.342;2023-05-29T11:06:47;99567.84;;;18.23;63.34
38033;BME280;23841;48.524;1.342;2023-05-29T11:12:11;99566.84;;;18.26;64.00
38033;BME280;23841;48.524;1.342;2023-05-29T11:14:56;99563.09;;;18.29;64.38
38033;BME280;23841;48.524;1.342;2023-05-29T11:17:48;99562.09;;;18.31;64.12
38033;BME280;23841;48.524;1.342;2023-05-29T11:20:47;99567.38;;;18.33;64.03
38033;BME280;23841;48.524;1.342;2023-05-29T11:23:16;99553.84;;;18.34;63.66
38033;BME280;23841;48.524;1.342;2023-05-29T11:25:44;99557.34;;;18.36;63.81
38033;BME280;23841;48.524;1.342;2023-05-29T11:28:10;99552.13;;;18.33;64.19
38033;BME280;23841;48.524;1.342;2023-05-29T11:30:48;99559.88;;;18.39;64.16
38033;BME280;23841;48.524;1.342;2023-05-29T11:33:25;99572.47;;;18.39;63.65
38033;BME280;23841;48.524;1.342;2023-05-29T11:36:00;99565.09;;;18.42;64.13
38033;BME280;23841;48.524;1.342;2023-05-29T11:38:28;99563.31;;;18.43;63.86
38033;BME280;23841;48.524;1.342;2023-05-29T11:40:54;99555.16;;;18.45;63.66
38033;BME280;23841;48.524;1.342;2023-05-29T11:43:21;99564.91;;;18.47;63.90
38033;BME280;23841;48.524;1.342;2023-05-29T11:45:47;99557.75;;;18.46;63.75
38033;BME280;23841;48.524;1.342;2023-05-29T11:48:12;99553.13;;;18.50;63.78
38033;BME280;23841;48.524;1.342;2023-05-29T11:50:38;99563.88;;;18.50;63.50
38033;BME280;23841;48.524;1.342;2023-05-29T11:53:06;99556.59;;;18.52;63.68
38033;BME280;23841;48.524;1.342;2023-05-29T11:55:32;99554.75;;;18.52;63.55
38033;BME280;23841;48.524;1.342;2023-05-29T11:57:59;99560.09;;;18.54;63.33
38033;BME280;23841;48.524;1.342;2023-05-29T12:00:26;99563.53;;;18.56;63.45
38033;BME280;23841;48.524;1.342;2023-05-29T12:02:51;99566.97;;;18.59;63.46
38033;BME280;23841;48.524;1.342;2023-05-29T12:05:18;99564.28;;;18.59;63.28
38033;BME280;23841;48.524;1.342;2023-05-29T12:07:48;99552.47;;;18.62;63.43
38033;BME280;23841;48.524;1.342;2023-05-29T12:10:16;99556.97;;;18.62;63.33
38033;BME280;23841;48.524;1.342;2023-05-29T12:12:42;99560.47;;;18.64;63.34
38033;BME280;23841;48.524;1.342;2023-05-29T12:15:11;99564.88;;;18.65;63.42
38033;BME280;23841;48.524;1.342;2023-05-29T12:17:37;99552.47;;;18.62;63.71
38033;BME280;23841;48.524;1.342;2023-05-29T12:20:04;99557.56;;;18.68;63.35
38033;BME280;23841;48.524;1.342;2023-05-29T12:22:38;99554.78;;;18.70;63.49
38033;BME280;23841;48.524;1.342;2023-05-29T12:27:34;99558.28;;;18.72;63.32
38033;BME280;23841;48.524;1.342;2023-05-29T12:30:10;99562.59;;;18.74;63.24
38033;BME280;23841;48.524;1.342;2023-05-29T12:32:38;99553.59;;;18.75;62.91
38033;BME280;23841;48.524;1.342;2023-05-29T12:35:11;99569.72;;;18.75;62.99
38033;BME280;23841;48.524;1.342;2023-05-29T12:38:10;99563.31;;;18.78;63.04
38033;BME280;23841;48.524;1.342;2023-05-29T12:40:35;99570.28;;;18.82;63.05
38033;BME280;23841;48.524;1.342;2023-05-29T12:43:07;99564.06;;;18.82;62.96
38033;BME280;23841;48.524;1.342;2023-05-29T12:45:36;99559.69;;;18.79;62.97
38033;BME280;23841;48.524;1.342;2023-05-29T12:48:06;99570.13;;;18.85;62.74
38033;BME280;23841;48.524;1.342;2023-05-29T12:50:33;99563.81;;;18.86;62.87
38033;BME280;23841;48.524;1.342;2023-05-29T12:53:01;99567.34;;;18.87;62.76
38033;BME280;23841;48.524;1.342;2023-05-29T12:55:29;99572.59;;;18.90;63.03
38033;BME280;23841;48.524;1.342;2023-05-29T12:57:55;99570.72;;;18.92;62.75
38033;BME280;23841;48.524;1.342;2023-05-29T13:00:22;99566.28;;;18.91;62.85
38033;BME280;23841;48.524;1.342;2023-05-29T13:02:48;99569.78;;;18.93;62.67
38033;BME280;23841;48.524;1.342;2023-05-29T13:05:15;99565.16;;;18.95;62.58
38033;BME280;23841;48.524;1.342;2023-05-29T13:07:42;99558.84;;;18.96;62.51
38033;BME280;23841;48.524;1.342;2023-05-29T13:10:08;99560.59;;;18.97;62.40
38033;BME280;23841;48.524;1.342;2023-05-29T13:12:34;99563.28;;;18.97;62.44
38033;BME280;23841;48.524;1.342;2023-05-29T13:15:00;99556.84;;;19.00;62.33
38033;BME280;23841;48.524;1.342;2023-05-29T13:17:26;99567.56;;;19.01;62.17
38033;BME280;23841;48.524;1.342;2023-05-29T13:19:51;99550.44;;;19.02;62.53
38033;BME280;23841;48.524;1.342;2023-05-29T13:22:16;99552.91;;;19.07;63.04
38033;BME280;23841;48.524;1.342;2023-05-29T13:24:42;99545.84;;;19.04;62.81